sensor_id;sensor_type;location;lat;lon;timestamp;pressure;altitude;pressure_sealevel;temperature;humidity
46007;BME280;31738;50.188;8.524;2022-10-30T00:01:49;99145.63;;;16.54;94.67
46007;BME280;31738;50.188;8.524;2022-10-30T00:04:15;99139.09;;;16.55;94.82
46007;BME280;31738;50.188;8.524;2022-10-30T00:06:40;99140.22;;;16.54;94.76
46007;BME280;31738;50.188;8.524;2022-10-30T00:09:06;99139.91;;;16.55;94.71
46007;BME280;31738;50.188;8.524;2022-10-30T00:11:31;99140.97;;;16.54;94.79
46007;BME280;31738;50.188;8.524;2022-10-30T00:13:57;99131.78;;;16.55;94.83
46007;BME280;31738;50.188;8.524;2022-10-30T00:16:22;99134.78;;;16.54;94.89
46007;BME280;31738;50.188;8.524;2022-10-30T00:18:48;99128.56;;;16.53;95.18
46007;BME280;31738;50.188;8.524;2022-10-30T00:21:14;99129.38;;;16.54;95.22
46007;BME280;31738;50.188;8.524;2022-10-30T00:23:51;99128.03;;;16.51;94.83
46007;BME280;31738;50.188;8.524;2022-10-30T00:26:18;99126.16;;;16.52;94.66
46007;BME280;31738;50.188;8.524;2022-10-30T00:28:48;99124.56;;;16.51;94.52
46007;BME280;31738;50.188;8.524;2022-10-30T00:31:14;99133.47;;;16.51;95.02
46007;BME280;31738;50.188;8.524;2022-10-30T00:33:39;99131.56;;;16.52;94.62
46007;BME280;31738;50.188;8.524;2022-10-30T00:36:05;99130.44;;;16.53;94.68
46007;BME280;31738;50.188;8.524;2022-10-30T00:38:31;99132.56;;;16.56;94.42
46007;BME280;31738;50.188;8.524;2022-10-30T00:40:56;99142.59;;;16.55;94.37
46007;BME280;31738;50.188;8.524;2022-10-30T00:45:51;99148.72;;;16.61;94.14
46007;BME280;31738;50.188;8.524;2022-10-30T00:48:18;99143.28;;;16.61;93.55
46007;BME280;31738;50.188;8.524;2022-10-30T00:50:44;99143.59;;;16.59;93.91
46007;BME280;31738;50.188;8.524;2022-10-30T00:53:13;99133.56;;;16.60;93.35
46007;BME280;31738;50.188;8.524;2022-10-30T00:55:51;99142.78;;;16.59;93.14
46007;BME280;31738;50.188;8.524;2022-10-30T00:58:24;99142.78;;;16.59;92.96
46007;BME280;31738;50.188;8.524;2022-10-30T01:00:54;99139.00;;;16.60;93.24
46007;BME280;31738;50.188;8.524;2022-10-30T01:03:21;99139.78;;;16.60;92.69
46007;BME280;31738;50.188;8.524;2022-10-30T01:05:53;99147.28;;;16.63;92.39
46007;BME280;31738;50.188;8.524;2022-10-30T01:08:19;99142.69;;;16.64;92.31
46007;BME280;31738;50.188;8.524;2022-10-30T01:10:46;99145.09;;;16.65;92.26
46007;BME280;31738;50.188;8.524;2022-10-30T01:13:12;99145.09;;;16.65;92.21
46007;BME280;31738;50.188;8.524;2022-10-30T01:16:05;99142.91;;;16.67;92.24
46007;BME280;31738;50.188;8.524;2022-10-30T01:21:38;99143.91;;;16.58;92.37
46007;BME280;31738;50.188;8.524;2022-10-30T01:24:33;99140.38;;;16.57;91.93
46007;BME280;31738;50.188;8.524;2022-10-30T01:27:24;99134.47;;;16.55;92.30
46007;BME280;31738;50.188;8.524;2022-10-30T01:38:02;99134.66;;;16.59;91.50
46007;BME280;31738;50.188;8.524;2022-10-30T01:40:26;99143.22;;;16.52;91.69
46007;BME280;31738;50.188;8.524;2022-10-30T01:42:55;99129.38;;;16.54;92.14
46007;BME280;31738;50.188;8.524;2022-10-30T01:51:03;99124.66;;;16.46;92.40
46007;BME280;31738;50.188;8.524;2022-10-30T01:59:02;99135.41;;;16.51;91.22
46007;BME280;31738;50.188;8.524;2022-10-30T02:01:31;99131.06;;;16.50;90.97
46007;BME280;31738;50.188;8.524;2022-10-30T02:04:00;99136.47;;;16.50;91.19
46007;BME280;31738;50.188;8.524;2022-10-30T02:06:26;99140.81;;;16.51;90.93
46007;BME280;31738;50.188;8.524;2022-10-30T02:08:55;99139.59;;;16.57;90.64
46007;BME280;31738;50.188;8.524;2022-10-30T02:11:22;99144.88;;;16.62;90.42
46007;BME280;31738;50.188;8.524;2022-10-30T02:13:49;99140.50;;;16.66;90.03
46007;BME280;31738;50.188;8.524;2022-10-30T02:16:18;99148.00;;;16.69;90.20
46007;BME280;31738;50.188;8.524;2022-10-30T02:18:43;99149.00;;;16.73;89.75
46007;BME280;31738;50.188;8.524;2022-10-30T02:21:09;99151.41;;;16.74;89.68
46007;BME280;31738;50.188;8.524;2022-10-30T02:23:36;99146.19;;;16.78;89.41
46007;BME280;31738;50.188;8.524;2022-10-30T02:26:02;99150.78;;;16.77;89.16
46007;BME280;31738;50.188;8.524;2022-10-30T02:28:28;99147.31;;;16.77;89.49
46007;BME280;31738;50.188;8.524;2022-10-30T02:30:53;99152.72;;;16.77;89.44
46007;BME280;31738;50.188;8.524;2022-10-30T02:33:19;99155.44;;;16.77;88.82
46007;BME280;31738;50.188;8.524;2022-10-30T02:35:45;99163.56;;;16.77;88.84
46007;BME280;31738;50.188;8.524;2022-10-30T02:38:10;99165.47;;;16.76;88.63
46007;BME280;31738;50.188;8.524;2022-10-30T02:40:36;99164.66;;;16.76;88.59
46007;BME280;31738;50.188;8.524;2022-10-30T02:43:01;99156.81;;;16.74;88.60
46007;BME280;31738;50.188;8.524;2022-10-30T02:45:28;99176.09;;;16.73;88.47
46007;BME280;31738;50.188;8.524;2022-10-30T02:47:54;99167.47;;;16.71;88.70
46007;BME280;31738;50.188;8.524;2022-10-30T02:50:20;99169.19;;;16.67;89.14
46007;BME280;31738;50.188;8.524;2022-10-30T02:52:45;99167.88;;;16.64;89.10
46007;BME280;31738;50.188;8.524;2022-10-30T02:55:11;99165.47;;;16.63;89.15
46007;BME280;31738;50.188;8.524;2022-10-30T02:57:37;99157.66;;;16.61;89.51
46007;BME280;31738;50.188;8.524;2022-10-30T03:00:04;99155.25;;;16.60;89.05
46007;BME280;31738;50.188;8.524;2022-10-30T03:02:29;99145.00;;;16.57;89.63
46007;BME280;31738;50.188;8.524;2022-10-30T03:04:55;99139.59;;;16.57;89.86
46007;BME280;31738;50.188;8.524;2022-10-30T03:07:20;99137.97;;;16.56;89.98
46007;BME280;31738;50.188;8.524;2022-10-30T03:09:46;99143.69;;;16.54;89.39
46007;BME280;31738;50.188;8.524;2022-10-30T03:12:12;99139.38;;;16.53;89.71
46007;BME280;31738;50.188;8.524;2022-10-30T03:14:38;99135.97;;;16.48;90.11
46007;BME280;31738;50.188;8.524;2022-10-30T03:17:03;99138.69;;;16.48;89.95
46007;BME280;31738;50.188;8.524;2022-10-30T03:19:29;99149.03;;;16.46;90.29
46007;BME280;31738;50.188;8.524;2022-10-30T03:21:54;99156.63;;;16.44;90.74
46007;BME280;31738;50.188;8.524;2022-10-30T03:24:20;99145.56;;;16.40;90.50
46007;BME280;31738;50.188;8.524;2022-10-30T03:26:46;99152.91;;;16.40;90.30
46007;BME280;31738;50.188;8.524;2022-10-30T03:29:12;99144.28;;;16.38;90.22
46007;BME280;31738;50.188;8.524;2022-10-30T03:31:37;99142.69;;;16.37;90.05
46007;BME280;31738;50.188;8.524;2022-10-30T03:34:17;99149.19;;;16.36;90.16
46007;BME280;31738;50.188;8.524;2022-10-30T03:36:45;99143.16;;;16.39;90.22
46007;BME280;31738;50.188;8.524;2022-10-30T03:39:11;99143.47;;;16.37;90.09
46007;BME280;31738;50.188;8.524;2022-10-30T03:41:40;99142.84;;;16.40;89.84
46007;BME280;31738;50.188;8.524;2022-10-30T03:44:07;99149.59;;;16.43;89.39
46007;BME280;31738;50.188;8.524;2022-10-30T03:46:33;99147.97;;;16.42;89.29
46007;BME280;31738;50.188;8.524;2022-10-30T03:49:18;99143.75;;;16.36;89.46
46007;BME280;31738;50.188;8.524;2022-10-30T03:51:43;99144.06;;;16.34;89.43
46007;BME280;31738;50.188;8.524;2022-10-30T03:54:09;99143.59;;;16.32;89.53
46007;BME280;31738;50.188;8.524;2022-10-30T03:56:34;99143.38;;;16.29;89.58
46007;BME280;31738;50.188;8.524;2022-10-30T03:59:02;99140.06;;;16.32;90.38
46007;BME280;31738;50.188;8.524;2022-10-30T04:01:28;99147.19;;;16.28;90.01
46007;BME280;31738;50.188;8.524;2022-10-30T04:03:55;99135.34;;;16.24;90.74
46007;BME280;31738;50.188;8.524;2022-10-30T04:06:23;99136.75;;;16.21;90.72
46007;BME280;31738;50.188;8.524;2022-10-30T04:08:48;99131.13;;;16.18;91.03
46007;BME280;31738;50.188;8.524;2022-10-30T04:11:15;99136.31;;;16.14;91.33
46007;BME280;31738;50.188;8.524;2022-10-30T04:13:40;99140.75;;;16.10;91.53
46007;BME280;31738;50.188;8.524;2022-10-30T04:16:06;99136.53;;;16.04;91.66
46007;BME280;31738;50.188;8.524;2022-10-30T04:18:32;99136.31;;;16.01;91.77
46007;BME280;31738;50.188;8.524;2022-10-30T04:20:59;99137.72;;;15.98;92.18
46007;BME280;31738;50.188;8.524;2022-10-30T04:23:24;99127.50;;;15.95;92.44
46007;BME280;31738;50.188;8.524;2022-10-30T04:25:50;99132.69;;;15.92;92.58
46007;BME280;31738;50.188;8.524;2022-10-30T04:28:16;99127.88;;;15.89;92.95
46007;BME280;31738;50.188;8.524;2022-10-30T04:30:42;99130.06;;;15.87;92.49
46007;BME280;31738;50.188;8.524;2022-10-30T04:33:12;99127.97;;;15.84;92.52
46007;BME280;31738;50.188;8.524;2022-10-30T04:35:40;99125.38;;;15.79;93.00
46007;BME280;31738;50.188;8.524;2022-10-30T04:38:14;99116.22;;;15.75;92.98
46007;BME280;31738;50.188;8.524;2022-10-30T04:40:42;99121.16;;;15.73;93.02
46007;BME280;31738;50.188;8.524;2022-10-30T04:43:10;99113.03;;;15.73;93.37
46007;BME280;31738;50.188;8.524;2022-10-30T04:45:37;99117.13;;;15.70;93.20
46007;BME280;31738;50.188;8.524;2022-10-30T04:48:14;99115.81;;;15.68;93.31
46007;BME280;31738;50.188;8.524;2022-10-30T04:50:41;99122.41;;;15.62;93.38
46007;BME280;31738;50.188;8.524;2022-10-30T04:53:16;99111.91;;;15.60;93.27
46007;BME280;31738;50.188;8.524;2022-10-30T04:55:43;99113.09;;;15.35;94.04
46007;BME280;31738;50.188;8.524;2022-10-30T04:58:10;99114.69;;;15.36;93.86
46007;BME280;31738;50.188;8.524;2022-10-30T05:00:38;99114.13;;;15.39;93.90
46007;BME280;31738;50.188;8.524;2022-10-30T05:03:22;99119.28;;;15.36;93.86
46007;BME280;31738;50.188;8.524;2022-10-30T05:06:00;99119.28;;;15.36;93.92
46007;BME280;31738;50.188;8.524;2022-10-30T05:08:27;99124.41;;;15.37;94.11
46007;BME280;31738;50.188;8.524;2022-10-30T05:10:53;99118.50;;;15.35;94.16
46007;BME280;31738;50.188;8.524;2022-10-30T05:13:19;99115.78;;;15.35;94.16
46007;BME280;31738;50.188;8.524;2022-10-30T05:15:44;99112.06;;;15.31;94.14
46007;BME280;31738;50.188;8.524;2022-10-30T05:18:10;99117.25;;;15.28;94.49
46007;BME280;31738;50.188;8.524;2022-10-30T05:20:35;99107.81;;;15.25;94.42
46007;BME280;31738;50.188;8.524;2022-10-30T05:23:02;99105.13;;;15.25;94.55
46007;BME280;31738;50.188;8.524;2022-10-30T05:25:28;99102.22;;;15.22;94.96
46007;BME280;31738;50.188;8.524;2022-10-30T05:28:00;99089.78;;;15.21;94.92
46007;BME280;31738;50.188;8.524;2022-10-30T05:30:28;99089.00;;;15.20;95.16
46007;BME280;31738;50.188;8.524;2022-10-30T05:33:06;99092.31;;;15.17;94.98
46007;BME280;31738;50.188;8.524;2022-10-30T05:35:32;99098.78;;;15.16;95.22
46007;BME280;31738;50.188;8.524;2022-10-30T05:37:59;99097.47;;;15.14;95.22
46007;BME280;31738;50.188;8.524;2022-10-30T05:40:25;99086.97;;;15.12;95.14
46007;BME280;31738;50.188;8.524;2022-10-30T05:42:51;99097.25;;;15.10;95.39
46007;BME280;31738;50.188;8.524;2022-10-30T05:45:17;99087.84;;;15.08;95.50
46007;BME280;31738;50.188;8.524;2022-10-30T05:47:53;99093.03;;;15.04;95.25
46007;BME280;31738;50.188;8.524;2022-10-30T05:50:20;99092.50;;;15.02;95.47
46007;BME280;31738;50.188;8.524;2022-10-30T05:52:59;99090.41;;;14.99;95.10
46007;BME280;31738;50.188;8.524;2022-10-30T05:55:26;99091.50;;;14.98;95.43
46007;BME280;31738;50.188;8.524;2022-10-30T05:58:09;99095.88;;;14.94;95.71
46007;BME280;31738;50.188;8.524;2022-10-30T06:00:37;99098.06;;;14.92;95.39
46007;BME280;31738;50.188;8.524;2022-10-30T06:03:06;99097.56;;;14.90;95.73
46007;BME280;31738;50.188;8.524;2022-10-30T06:05:34;99100.25;;;14.90;95.63
46007;BME280;31738;50.188;8.524;2022-10-30T06:08:01;99113.75;;;14.90;95.62
46007;BME280;31738;50.188;8.524;2022-10-30T06:10:27;99099.75;;;14.88;95.60
46007;BME280;31738;50.188;8.524;2022-10-30T06:13:06;99108.41;;;14.85;95.79
46007;BME280;31738;50.188;8.524;2022-10-30T06:15:37;99112.22;;;14.84;95.86
46007;BME280;31738;50.188;8.524;2022-10-30T06:18:03;99106.81;;;14.84;95.87
46007;BME280;31738;50.188;8.524;2022-10-30T06:20:47;99104.72;;;14.81;96.28
46007;BME280;31738;50.188;8.524;2022-10-30T06:23:51;99106.88;;;14.79;96.32
46007;BME280;31738;50.188;8.524;2022-10-30T06:26:36;99112.84;;;14.58;96.99
46007;BME280;31738;50.188;8.524;2022-10-30T06:29:09;99107.69;;;14.61;97.26
46007;BME280;31738;50.188;8.524;2022-10-30T06:31:35;99107.03;;;14.69;97.26
46007;BME280;31738;50.188;8.524;2022-10-30T06:34:01;99104.88;;;14.71;97.43
46007;BME280;31738;50.188;8.524;2022-10-30T06:36:28;99095.66;;;14.72;97.57
46007;BME280;31738;50.188;8.524;2022-10-30T06:38:54;99110.75;;;14.73;97.56
46007;BME280;31738;50.188;8.524;2022-10-30T06:41:23;99108.56;;;14.75;97.50
46007;BME280;31738;50.188;8.524;2022-10-30T06:44:13;99109.16;;;14.72;97.75
46007;BME280;31738;50.188;8.524;2022-10-30T06:46:39;99103.19;;;14.75;97.23
46007;BME280;31738;50.188;8.524;2022-10-30T06:49:04;99104.00;;;14.76;97.29
46007;BME280;31738;50.188;8.524;2022-10-30T06:51:30;99110.16;;;14.76;97.40
46007;BME280;31738;50.188;8.524;2022-10-30T06:53:59;99104.47;;;14.78;97.32
46007;BME280;31738;50.188;8.524;2022-10-30T06:56:48;99109.09;;;14.77;97.34
46007;BME280;31738;50.188;8.524;2022-10-30T06:59:33;99110.16;;;14.76;97.32
46007;BME280;31738;50.188;8.524;2022-10-30T07:02:28;99108.06;;;14.73;97.26
46007;BME280;31738;50.188;8.524;2022-10-30T07:04:57;99106.97;;;14.74;97.52
46007;BME280;31738;50.188;8.524;2022-10-30T07:07:22;99103.69;;;14.77;97.67
46007;BME280;31738;50.188;8.524;2022-10-30T07:09:48;99108.00;;;14.78;97.57
46007;BME280;31738;50.188;8.524;2022-10-30T07:12:20;99108.22;;;14.82;97.54
46007;BME280;31738;50.188;8.524;2022-10-30T07:15:06;99105.81;;;14.80;98.09
46007;BME280;31738;50.188;8.524;2022-10-30T07:17:52;99112.50;;;14.64;97.95
46007;BME280;31738;50.188;8.524;2022-10-30T07:24:17;99115.16;;;14.69;98.42
46007;BME280;31738;50.188;8.524;2022-10-30T07:27:40;99123.66;;;14.76;98.34
46007;BME280;31738;50.188;8.524;2022-10-30T07:30:51;99126.91;;;14.78;98.37
46007;BME280;31738;50.188;8.524;2022-10-30T07:33:35;99111.66;;;14.87;98.77
46007;BME280;31738;50.188;8.524;2022-10-30T07:36:08;99116.41;;;14.95;98.90
46007;BME280;31738;50.188;8.524;2022-10-30T07:38:50;99119.53;;;15.02;99.01
46007;BME280;31738;50.188;8.524;2022-10-30T07:41:39;99122.16;;;15.07;98.85
46007;BME280;31738;50.188;8.524;2022-10-30T07:44:36;99120.19;;;15.13;99.03
46007;BME280;31738;50.188;8.524;2022-10-30T07:47:28;99119.50;;;15.21;99.10
46007;BME280;31738;50.188;8.524;2022-10-30T07:50:00;99125.56;;;15.31;99.30
46007;BME280;31738;50.188;8.524;2022-10-30T07:52:31;99114.63;;;15.42;99.76
46007;BME280;31738;50.188;8.524;2022-10-30T07:54:56;99113.16;;;15.49;100.00
46007;BME280;31738;50.188;8.524;2022-10-30T07:57:41;99116.78;;;15.58;99.93
46007;BME280;31738;50.188;8.524;2022-10-30T08:00:30;99120.19;;;15.64;99.92
46007;BME280;31738;50.188;8.524;2022-10-30T08:03:08;99123.84;;;15.73;99.66
46007;BME280;31738;50.188;8.524;2022-10-30T08:05:43;99125.84;;;15.81;99.67
46007;BME280;31738;50.188;8.524;2022-10-30T08:08:41;99123.88;;;15.86;99.79
46007;BME280;31738;50.188;8.524;2022-10-30T08:11:27;99134.28;;;15.93;99.74
46007;BME280;31738;50.188;8.524;2022-10-30T08:13:53;99132.00;;;16.00;99.62
46007;BME280;31738;50.188;8.524;2022-10-30T08:16:19;99131.63;;;16.06;100.00
46007;BME280;31738;50.188;8.524;2022-10-30T08:18:44;99133.44;;;16.11;99.62
46007;BME280;31738;50.188;8.524;2022-10-30T08:21:11;99128.72;;;16.16;99.71
46007;BME280;31738;50.188;8.524;2022-10-30T08:23:46;99132.72;;;16.19;99.73
46007;BME280;31738;50.188;8.524;2022-10-30T08:26:15;99128.34;;;16.23;99.82
46007;BME280;31738;50.188;8.524;2022-10-30T08:28:40;99137.16;;;16.28;99.96
46007;BME280;31738;50.188;8.524;2022-10-30T08:31:08;99133.53;;;16.33;99.97
46007;BME280;31738;50.188;8.524;2022-10-30T08:34:00;99137.25;;;16.37;100.00
46007;BME280;31738;50.188;8.524;2022-10-30T08:36:30;99124.16;;;16.44;99.88
46007;BME280;31738;50.188;8.524;2022-10-30T08:38:56;99135.97;;;16.48;99.72
46007;BME280;31738;50.188;8.524;2022-10-30T08:41:58;99129.97;;;16.51;99.40
46007;BME280;31738;50.188;8.524;2022-10-30T08:44:28;99134.19;;;16.57;99.50
46007;BME280;31738;50.188;8.524;2022-10-30T08:47:14;99134.56;;;16.64;99.53
46007;BME280;31738;50.188;8.524;2022-10-30T08:49:40;99142.00;;;16.72;98.86
46007;BME280;31738;50.188;8.524;2022-10-30T08:52:08;99138.56;;;16.80;98.97
46007;BME280;31738;50.188;8.524;2022-10-30T08:54:34;99145.19;;;16.87;98.60
46007;BME280;31738;50.188;8.524;2022-10-30T08:57:00;99141.72;;;16.95;98.33
46007;BME280;31738;50.188;8.524;2022-10-30T08:59:25;99140.72;;;17.05;98.03
46007;BME280;31738;50.188;8.524;2022-10-30T09:01:53;99142.91;;;17.17;98.06
46007;BME280;31738;50.188;8.524;2022-10-30T09:04:19;99142.34;;;17.28;97.25
46007;BME280;31738;50.188;8.524;2022-10-30T09:07:13;99148.94;;;17.36;96.88
46007;BME280;31738;50.188;8.524;2022-10-30T09:09:58;99151.78;;;17.44;96.72
46007;BME280;31738;50.188;8.524;2022-10-30T09:12:25;99143.88;;;17.56;96.75
46007;BME280;31738;50.188;8.524;2022-10-30T09:14:50;99149.66;;;17.63;96.06
46007;BME280;31738;50.188;8.524;2022-10-30T09:17:16;99157.69;;;17.68;96.23
46007;BME280;31738;50.188;8.524;2022-10-30T09:19:44;99166.78;;;17.72;95.33
46007;BME280;31738;50.188;8.524;2022-10-30T09:22:14;99159.34;;;17.78;94.73
46007;BME280;31738;50.188;8.524;2022-10-30T09:24:41;99166.56;;;17.82;94.62
46007;BME280;31738;50.188;8.524;2022-10-30T09:27:37;99165.31;;;17.88;94.06
46007;BME280;31738;50.188;8.524;2022-10-30T09:30:03;99163.25;;;17.94;93.89
46007;BME280;31738;50.188;8.524;2022-10-30T09:32:31;99172.41;;;17.98;93.35
46007;BME280;31738;50.188;8.524;2022-10-30T09:35:05;99172.56;;;18.01;93.41
46007;BME280;31738;50.188;8.524;2022-10-30T09:37:36;99171.47;;;18.02;92.99
46007;BME280;31738;50.188;8.524;2022-10-30T09:40:06;99163.19;;;18.07;92.61
46007;BME280;31738;50.188;8.524;2022-10-30T09:42:47;99184.78;;;18.12;92.58
46007;BME280;31738;50.188;8.524;2022-10-30T09:48:36;99192.69;;;18.22;91.54
46007;BME280;31738;50.188;8.524;2022-10-30T09:57:23;99185.75;;;18.38;90.74
46007;BME280;31738;50.188;8.524;2022-10-30T10:00:06;99189.91;;;18.44;89.90
46007;BME280;31738;50.188;8.524;2022-10-30T10:03:16;99184.66;;;18.48;89.56
46007;BME280;31738;50.188;8.524;2022-10-30T10:06:04;99204.81;;;18.47;88.71
46007;BME280;31738;50.188;8.524;2022-10-30T10:09:17;99213.44;;;18.49;88.21
46007;BME280;31738;50.188;8.524;2022-10-30T10:12:10;99213.78;;;18.56;88.31
46007;BME280;31738;50.188;8.524;2022-10-30T10:14:42;99216.53;;;18.64;87.80
46007;BME280;31738;50.188;8.524;2022-10-30T10:17:12;99216.91;;;18.72;86.94
46007;BME280;31738;50.188;8.524;2022-10-30T10:19:44;99221.53;;;18.80;86.51
46007;BME280;31738;50.188;8.524;2022-10-30T10:22:36;99224.63;;;18.87;85.22
46007;BME280;31738;50.188;8.524;2022-10-30T10:25:06;99226.06;;;18.93;85.02
46007;BME280;31738;50.188;8.524;2022-10-30T10:27:55;99233.78;;;18.99;83.82
46007;BME280;31738;50.188;8.524;2022-10-30T10:30:23;99231.06;;;18.99;83.43
46007;BME280;31738;50.188;8.524;2022-10-30T10:38:39;99238.09;;;19.09;81.71
46007;BME280;31738;50.188;8.524;2022-10-30T10:49:45;99236.56;;;19.25;81.79
46007;BME280;31738;50.188;8.524;2022-10-30T10:52:20;99238.66;;;19.28;81.27
46007;BME280;31738;50.188;8.524;2022-10-30T10:54:57;99243.16;;;19.32;79.85
46007;BME280;31738;50.188;8.524;2022-10-30T10:57:31;99242.50;;;19.35;79.97
46007;BME280;31738;50.188;8.524;2022-10-30T11:00:18;99239.66;;;19.40;80.10
46007;BME280;31738;50.188;8.524;2022-10-30T11:08:24;99252.94;;;19.50;79.05
46007;BME280;31738;50.188;8.524;2022-10-30T11:10:56;99249.25;;;19.55;78.77
46007;BME280;31738;50.188;8.524;2022-10-30T11:13:24;99249.75;;;19.57;78.03
46007;BME280;31738;50.188;8.524;2022-10-30T11:18:40;99245.91;;;19.58;78.74
46007;BME280;31738;50.188;8.524;2022-10-30T11:21:09;99248.47;;;19.63;78.09
46007;BME280;31738;50.188;8.524;2022-10-30T11:23:40;99250.06;;;19.64;77.05
46007;BME280;31738;50.188;8.524;2022-10-30T11:31:33;99254.06;;;19.75;76.16
46007;BME280;31738;50.188;8.524;2022-10-30T11:36:43;99254.88;;;19.84;75.33
46007;BME280;31738;50.188;8.524;2022-10-30T11:39:33;99263.06;;;19.92;74.72
46007;BME280;31738;50.188;8.524;2022-10-30T11:42:05;99265.78;;;19.92;74.29
46007;BME280;31738;50.188;8.524;2022-10-30T11:44:40;99260.00;;;19.94;73.92
46007;BME280;31738;50.188;8.524;2022-10-30T11:47:07;99256.63;;;19.97;74.10
46007;BME280;31738;50.188;8.524;2022-10-30T11:49:46;99265.75;;;20.01;73.94
46007;BME280;31738;50.188;8.524;2022-10-30T11:52:17;99264.66;;;20.02;74.58
46007;BME280;31738;50.188;8.524;2022-10-30T11:54:49;99262.38;;;20.04;73.41
46007;BME280;31738;50.188;8.524;2022-10-30T11:57:34;99263.53;;;20.03;74.40
46007;BME280;31738;50.188;8.524;2022-10-30T12:00:05;99264.16;;;20.00;74.17
46007;BME280;31738;50.188;8.524;2022-10-30T12:02:41;99254.06;;;20.00;74.65
46007;BME280;31738;50.188;8.524;2022-10-30T12:08:10;99250.88;;;19.98;74.65
46007;BME280;31738;50.188;8.524;2022-10-30T12:10:44;99241.56;;;19.99;74.99
46007;BME280;31738;50.188;8.524;2022-10-30T12:13:15;99237.88;;;20.04;75.10
46007;BME280;31738;50.188;8.524;2022-10-30T12:15:42;99233.41;;;20.08;75.74
46007;BME280;31738;50.188;8.524;2022-10-30T12:18:18;99231.13;;;20.10;74.83
46007;BME280;31738;50.188;8.524;2022-10-30T12:20:48;99232.75;;;20.11;74.51
46007;BME280;31738;50.188;8.524;2022-10-30T12:23:18;99228.28;;;20.15;73.87
46007;BME280;31738;50.188;8.524;2022-10-30T12:25:51;99235.00;;;20.17;74.13
46007;BME280;31738;50.188;8.524;2022-10-30T12:28:23;99230.84;;;20.20;73.52
46007;BME280;31738;50.188;8.524;2022-10-30T12:30:57;99234.03;;;20.22;73.74
46007;BME280;31738;50.188;8.524;2022-10-30T12:36:17;99230.19;;;20.23;74.29
46007;BME280;31738;50.188;8.524;2022-10-30T12:42:01;99232.25;;;20.26;73.54
46007;BME280;31738;50.188;8.524;2022-10-30T12:44:37;99234.34;;;20.29;73.50
46007;BME280;31738;50.188;8.524;2022-10-30T12:47:19;99224.25;;;20.29;72.98
46007;BME280;31738;50.188;8.524;2022-10-30T12:50:18;99223.94;;;20.31;73.81
46007;BME280;31738;50.188;8.524;2022-10-30T12:53:05;99225.03;;;20.30;73.17
46007;BME280;31738;50.188;8.524;2022-10-30T12:55:42;99221.66;;;20.33;73.23
46007;BME280;31738;50.188;8.524;2022-10-30T12:58:25;99213.47;;;20.33;73.98
46007;BME280;31738;50.188;8.524;2022-10-30T13:03:49;99209.66;;;20.34;74.42
46007;BME280;31738;50.188;8.524;2022-10-30T13:06:23;99205.78;;;20.35;74.41
46007;BME280;31738;50.188;8.524;2022-10-30T13:09:03;99199.19;;;20.36;75.14
46007;BME280;31738;50.188;8.524;2022-10-30T13:12:02;99196.47;;;20.36;74.81
46007;BME280;31738;50.188;8.524;2022-10-30T13:14:37;99204.19;;;20.34;73.21
46007;BME280;31738;50.188;8.524;2022-10-30T13:17:12;99201.59;;;20.38;72.65
46007;BME280;31738;50.188;8.524;2022-10-30T13:19:39;99193.91;;;20.40;71.48
46007;BME280;31738;50.188;8.524;2022-10-30T13:22:11;99203.34;;;20.42;71.29
46007;BME280;31738;50.188;8.524;2022-10-30T13:24:47;99209.94;;;20.41;71.92
46007;BME280;31738;50.188;8.524;2022-10-30T13:27:35;99213.78;;;20.40;71.14
46007;BME280;31738;50.188;8.524;2022-10-30T13:30:20;99211.25;;;20.35;71.77
46007;BME280;31738;50.188;8.524;2022-10-30T13:33:21;99218.16;;;20.33;71.75
46007;BME280;31738;50.188;8.524;2022-10-30T13:36:00;99215.91;;;20.26;71.36
46007;BME280;31738;50.188;8.524;2022-10-30T13:38:50;99215.44;;;20.24;71.51
46007;BME280;31738;50.188;8.524;2022-10-30T13:43:56;99203.59;;;20.20;72.86
46007;BME280;31738;50.188;8.524;2022-10-30T13:49:03;99195.75;;;20.18;73.65
46007;BME280;31738;50.188;8.524;2022-10-30T13:51:43;99190.13;;;20.15;73.82
46007;BME280;31738;50.188;8.524;2022-10-30T13:54:17;99192.38;;;20.13;74.41
46007;BME280;31738;50.188;8.524;2022-10-30T13:56:45;99178.91;;;20.08;74.21
46007;BME280;31738;50.188;8.524;2022-10-30T13:59:27;99178.09;;;20.07;74.65
46007;BME280;31738;50.188;8.524;2022-10-30T14:02:21;99179.25;;;19.98;75.17
46007;BME280;31738;50.188;8.524;2022-10-30T14:05:11;99174.34;;;19.74;76.02
46007;BME280;31738;50.188;8.524;2022-10-30T14:07:55;99160.88;;;19.69;77.13
46007;BME280;31738;50.188;8.524;2022-10-30T14:10:42;99161.53;;;19.66;77.72
46007;BME280;31738;50.188;8.524;2022-10-30T14:13:25;99161.69;;;19.61;78.17
46007;BME280;31738;50.188;8.524;2022-10-30T14:15:57;99158.16;;;19.61;78.23
46007;BME280;31738;50.188;8.524;2022-10-30T14:18:27;99148.72;;;19.41;78.77
46007;BME280;31738;50.188;8.524;2022-10-30T14:20:56;99145.69;;;19.43;79.19
46007;BME280;31738;50.188;8.524;2022-10-30T14:23:48;99147.28;;;19.44;79.49
46007;BME280;31738;50.188;8.524;2022-10-30T14:26:25;99151.94;;;19.43;80.35
46007;BME280;31738;50.188;8.524;2022-10-30T14:28:53;99143.44;;;19.45;80.33
46007;BME280;31738;50.188;8.524;2022-10-30T14:31:32;99142.63;;;19.44;80.80
46007;BME280;31738;50.188;8.524;2022-10-30T14:33:58;99136.38;;;19.44;81.16
46007;BME280;31738;50.188;8.524;2022-10-30T14:36:47;99145.03;;;19.46;81.42
46007;BME280;31738;50.188;8.524;2022-10-30T14:47:39;99137.69;;;19.38;81.59
46007;BME280;31738;50.188;8.524;2022-10-30T14:50:17;99140.41;;;19.38;82.04
46007;BME280;31738;50.188;8.524;2022-10-30T14:58:25;99134.50;;;19.36;82.02
46007;BME280;31738;50.188;8.524;2022-10-30T15:06:33;99125.69;;;19.30;82.33
46007;BME280;31738;50.188;8.524;2022-10-30T15:09:12;99133.38;;;19.28;82.31
46007;BME280;31738;50.188;8.524;2022-10-30T15:14:34;99137.66;;;19.21;82.73
46007;BME280;31738;50.188;8.524;2022-10-30T15:17:01;99129.03;;;19.19;83.10
46007;BME280;31738;50.188;8.524;2022-10-30T15:19:28;99121.66;;;19.19;83.25